createdAt,value
2022-08-17T00:00:07.233Z,99761.09
2022-08-17T00:03:15.439Z,99746.97
2022-08-17T00:05:54.307Z,99758.38
2022-08-17T00:08:25.920Z,99766.69
2022-08-17T00:10:55.409Z,99759.56
2022-08-17T00:13:30.317Z,99756.59
2022-08-17T00:16:01.014Z,99752.91
2022-08-17T00:18:57.453Z,99750.47
2022-08-17T00:21:23.943Z,99756.53
2022-08-17T00:23:55.091Z,99741.50
2022-08-17T00:26:43.607Z,99742.69
2022-08-17T00:29:16.469Z,99728.91
2022-08-17T00:31:47.807Z,99730.19
2022-08-17T00:34:15.307Z,99749.44
2022-08-17T00:36:42.491Z,99743.81
2022-08-17T00:39:10.055Z,99742.72
2022-08-17T00:41:42.186Z,99731.72
2022-08-17T00:44:12.454Z,99733.03
2022-08-17T00:46:42.297Z,99733.13
2022-08-17T00:49:11.261Z,99738.09
2022-08-17T00:51:53.021Z,99736.47
2022-08-17T00:54:25.669Z,99746.59
2022-08-17T00:57:04.967Z,99737.97
2022-08-17T00:59:39.282Z,99739.94
2022-08-17T01:02:09.877Z,99746.97
2022-08-17T01:04:37.907Z,99743.56
2022-08-17T01:07:06.103Z,99756.50
2022-08-17T01:09:34.313Z,99748.38
2022-08-17T01:12:02.084Z,99750.63
2022-08-17T01:14:29.293Z,99741.53
2022-08-17T01:16:56.993Z,99755.22
2022-08-17T01:19:29.020Z,99751.03
2022-08-17T01:22:11.880Z,99748.41
2022-08-17T01:24:47.767Z,99741.19
2022-08-17T01:27:18.460Z,99752.50
2022-08-17T01:29:53.613Z,99756.31
2022-08-17T01:32:20.921Z,99753.75
2022-08-17T01:34:50.502Z,99748.16
2022-08-17T01:37:21.231Z,99753.97
2022-08-17T01:39:57.753Z,99763.81
2022-08-17T01:42:25.147Z,99759.81
2022-08-17T01:44:58.248Z,99748.00
2022-08-17T01:47:26.228Z,99757.66
2022-08-17T01:49:53.723Z,99744.50
2022-08-17T01:52:22.422Z,99757.03
2022-08-17T01:54:51.546Z,99762.03
2022-08-17T01:57:18.768Z,99765.66
2022-08-17T01:59:46.232Z,99756.69
2022-08-17T02:02:31.395Z,99762.66
2022-08-17T02:04:59.851Z,99766.63
2022-08-17T02:07:27.401Z,99761.53
2022-08-17T02:09:54.980Z,99762.84
2022-08-17T02:12:47.940Z,99769.75
2022-08-17T02:15:12.678Z,99774.56
2022-08-17T02:17:41.140Z,99767.88
2022-08-17T02:20:10.099Z,99764.28
2022-08-17T02:22:40.627Z,99778.47
2022-08-17T02:25:09.961Z,99763.94
2022-08-17T02:27:39.396Z,99766.31
2022-08-17T02:30:49.895Z,99772.13
2022-08-17T02:32:56.890Z,99766.28
2022-08-17T02:35:24.059Z,99763.41
2022-08-17T02:37:55.666Z,99758.44
2022-08-17T02:40:36.145Z,99753.09
2022-08-17T02:43:04.606Z,99759.06
2022-08-17T02:45:31.759Z,99768.53
2022-08-17T02:47:59.135Z,99769.75
2022-08-17T02:50:26.616Z,99773.59
2022-08-17T02:53:02.244Z,99765.84
2022-08-17T02:55:33.707Z,99769.75
2022-08-17T02:58:02.526Z,99756.31
2022-08-17T03:00:36.177Z,99767.47
2022-08-17T03:03:06.115Z,99771.50
2022-08-17T03:05:37.448Z,99778.25
2022-08-17T03:08:06.466Z,99776.34
2022-08-17T03:10:34.152Z,99775.53
2022-08-17T03:13:02.015Z,99773.00
2022-08-17T03:15:32.112Z,99773.66
2022-08-17T03:18:01.205Z,99790.22
2022-08-17T03:20:32.420Z,99782.91
2022-08-17T03:23:01.991Z,99776.66
2022-08-17T03:25:39.783Z,99782.84
2022-08-17T03:28:08.169Z,99803.06
2022-08-17T03:30:36.718Z,99790.75
2022-08-17T03:33:11.440Z,99790.75
2022-08-17T03:35:40.636Z,99802.50
2022-08-17T03:38:10.448Z,99801.06
2022-08-17T03:40:57.288Z,99801.06
2022-08-17T03:43:32.497Z,99792.22
2022-08-17T03:46:34.177Z,99799.88
2022-08-17T03:49:26.065Z,99799.06
2022-08-17T03:52:13.836Z,99797.34
2022-08-17T03:55:00.701Z,99804.16
2022-08-17T03:57:31.933Z,99802.41
2022-08-17T03:59:59.933Z,99792.91
2022-08-17T04:02:30.136Z,99805.50
2022-08-17T04:04:58.500Z,99792.78
2022-08-17T04:07:28.745Z,99788.66
2022-08-17T04:09:58.296Z,99796.53
2022-08-17T04:12:31.324Z,99805.50
2022-08-17T04:14:59.509Z,99805.13
2022-08-17T04:17:28.966Z,99811.91
2022-08-17T04:19:56.982Z,99792.22
2022-08-17T04:22:30.099Z,99808.13
2022-08-17T04:25:07.006Z,99818.28
2022-08-17T04:27:34.463Z,99818.72
2022-08-17T04:30:02.342Z,99800.88
2022-08-17T04:33:05.090Z,99798.53
2022-08-17T04:35:22.577Z,99806.94
2022-08-17T04:37:50.963Z,99816.28
2022-08-17T04:40:38.373Z,99820.94
2022-08-17T04:43:11.622Z,99825.00
2022-08-17T04:45:55.450Z,99822.56
2022-08-17T04:48:29.662Z,99828.63
2022-08-17T04:51:10.201Z,99824.53
2022-08-17T04:53:39.666Z,99819.38
2022-08-17T04:56:07.620Z,99813.66
2022-08-17T04:58:39.211Z,99820.06
2022-08-17T05:01:07.652Z,99823.66
2022-08-17T05:03:36.040Z,99817.25
2022-08-17T05:06:04.309Z,99816.75
2022-08-17T05:08:31.884Z,99802.84
2022-08-17T05:11:00.367Z,99810.72
2022-08-17T05:13:29.882Z,99821.75
2022-08-17T05:16:00.380Z,99818.38
2022-08-17T05:18:29.640Z,99819.19
2022-08-17T05:20:58.579Z,99824.41
2022-08-17T05:23:41.993Z,99828.81
2022-08-17T05:26:26.319Z,99834.94
2022-08-17T05:28:59.661Z,99819.41
2022-08-17T05:31:29.944Z,99824.50
2022-08-17T05:33:58.756Z,99817.97
2022-08-17T05:36:42.397Z,99814.66
2022-08-17T05:39:16.369Z,99826.78
2022-08-17T05:41:50.581Z,99820.97
2022-08-17T05:44:18.036Z,99809.13
2022-08-17T05:46:51.771Z,99817.97
2022-08-17T05:49:27.378Z,99811.00
2022-08-17T05:52:26.934Z,99828.38
2022-08-17T05:55:23.465Z,99824.84
2022-08-17T05:57:54.194Z,99834.53
2022-08-17T06:01:11.087Z,99824.25
2022-08-17T06:04:16.001Z,99825.31
2022-08-17T06:07:05.448Z,99840.91
2022-08-17T06:09:44.782Z,99847.41
2022-08-17T06:12:33.542Z,99833.53
2022-08-17T06:15:36.800Z,99843.19
2022-08-17T06:18:08.212Z,99839.88
2022-08-17T06:21:01.871Z,99839.78
2022-08-17T06:23:40.022Z,99840.31
2022-08-17T06:26:38.325Z,99838.91
2022-08-17T06:29:29.694Z,99839.22
2022-08-17T06:31:57.975Z,99848.91
2022-08-17T06:34:25.261Z,99828.53
2022-08-17T06:37:18.984Z,99859.59
2022-08-17T06:40:16.049Z,99859.22
2022-08-17T06:43:12.850Z,99850.22
2022-08-17T06:46:16.078Z,99865.09
2022-08-17T06:48:49.360Z,99856.19
2022-08-17T06:51:31.265Z,99860.16
2022-08-17T06:54:10.806Z,99848.22
2022-08-17T06:57:05.507Z,99853.38
2022-08-17T06:59:55.490Z,99854.06
2022-08-17T07:02:52.015Z,99853.38
2022-08-17T07:05:33.417Z,99842.84
2022-08-17T07:08:07.436Z,99862.00
2022-08-17T07:10:48.509Z,99852.06
2022-08-17T07:13:54.684Z,99863.44
2022-08-17T07:16:34.452Z,99859.50
2022-08-17T07:19:01.809Z,99839.38
2022-08-17T07:22:06.332Z,99867.03
2022-08-17T07:24:45.389Z,99856.91
2022-08-17T07:27:40.926Z,99847.47
2022-08-17T07:30:28.751Z,99858.88
2022-08-17T07:33:02.413Z,99866.69
2022-08-17T07:35:37.559Z,99864.00
2022-08-17T07:38:26.341Z,99862.31
2022-08-17T07:41:04.939Z,99866.31
2022-08-17T07:43:41.340Z,99867.13
2022-08-17T07:46:30.231Z,99861.25
2022-08-17T07:49:06.877Z,99859.09
2022-08-17T07:51:39.231Z,99860.53
2022-08-17T07:54:15.841Z,99855.59
2022-08-17T07:56:56.178Z,99848.56
2022-08-17T07:59:28.650Z,99848.66
2022-08-17T08:02:19.642Z,99860.09
2022-08-17T08:05:13.098Z,99857.00
2022-08-17T08:08:00.681Z,99854.56
2022-08-17T08:10:44.995Z,99859.06
2022-08-17T08:13:21.774Z,99855.66
2022-08-17T08:15:55.496Z,99847.09
2022-08-17T08:18:55.652Z,99845.75
2022-08-17T08:21:54.982Z,99857.91
2022-08-17T08:24:37.452Z,99848.72
2022-08-17T08:27:31.148Z,99851.59
2022-08-17T08:30:14.546Z,99843.16
2022-08-17T08:33:00.301Z,99842.25
2022-08-17T08:35:37.388Z,99861.38
2022-08-17T08:38:20.211Z,99849.41
2022-08-17T08:41:05.738Z,99848.50
2022-08-17T08:44:06.186Z,99840.31
2022-08-17T08:46:52.118Z,99855.16
2022-08-17T08:50:09.496Z,99846.53
2022-08-17T08:52:56.589Z,99843.66
2022-08-17T08:55:52.500Z,99859.13
2022-08-17T08:58:31.923Z,99856.78
2022-08-17T09:01:23.440Z,99855.97
2022-08-17T09:04:24.714Z,99871.19
2022-08-17T09:07:07.958Z,99857.25
2022-08-17T09:09:35.354Z,99858.19
2022-08-17T09:12:30.286Z,99855.59
2022-08-17T09:15:08.294Z,99856.53
2022-08-17T09:17:59.275Z,99832.56
2022-08-17T09:20:50.250Z,99842.72
2022-08-17T09:23:45.354Z,99864.00
2022-08-17T09:26:31.310Z,99859.13
2022-08-17T09:29:03.491Z,99868.59
2022-08-17T09:31:47.013Z,99857.75
2022-08-17T09:34:28.188Z,99873.22
2022-08-17T09:37:30.461Z,99869.84
2022-08-17T09:40:10.585Z,99868.25
2022-08-17T09:42:47.653Z,99862.41
2022-08-17T09:45:27.335Z,99861.38
2022-08-17T09:48:21.394Z,99863.81
2022-08-17T09:51:05.815Z,99870.84
2022-08-17T09:53:37.392Z,99869.50
2022-08-17T09:56:26.832Z,99868.25
2022-08-17T09:59:03.491Z,99863.91
2022-08-17T10:02:15.522Z,99852.47
2022-08-17T10:04:54.863Z,99858.78
2022-08-17T10:07:40.884Z,99859.13
2022-08-17T10:10:56.716Z,99845.81
2022-08-17T10:14:01.749Z,99848.16
2022-08-17T10:17:03.664Z,99834.63
2022-08-17T10:19:49.013Z,99846.41
2022-08-17T10:23:17.975Z,99843.25
2022-08-17T10:26:05.741Z,99833.13
2022-08-17T10:29:10.029Z,99841.22
2022-08-17T10:32:08.834Z,99841.28
2022-08-17T10:35:20.789Z,99851.66
2022-08-17T10:37:48.160Z,99854.09
2022-08-17T10:40:18.227Z,99854.38
2022-08-17T10:42:57.293Z,99847.44
2022-08-17T10:46:10.703Z,99848.72
2022-08-17T10:48:39.887Z,99839.59
2022-08-17T10:51:10.030Z,99848.09
2022-08-17T10:53:43.713Z,99845.78
2022-08-17T10:56:14.113Z,99856.91
2022-08-17T10:58:54.173Z,99843.53
2022-08-17T11:01:38.102Z,99856.91
2022-08-17T11:04:11.969Z,99862.53
2022-08-17T11:06:39.175Z,99852.41
2022-08-17T11:09:31.019Z,99841.34
2022-08-17T11:12:16.646Z,99842.25
2022-08-17T11:15:24.199Z,99842.38
2022-08-17T11:17:54.509Z,99840.53
2022-08-17T11:20:28.281Z,99843.56
2022-08-17T11:23:24.944Z,99836.31
2022-08-17T11:25:55.601Z,99844.97
2022-08-17T11:28:26.904Z,99833.75
2022-08-17T11:30:56.510Z,99838.59
2022-08-17T11:33:34.173Z,99833.63
2022-08-17T11:36:16.262Z,99830.06
2022-08-17T11:39:04.681Z,99834.53
2022-08-17T11:41:49.089Z,99830.75
2022-08-17T11:44:22.639Z,99839.41
2022-08-17T11:47:28.025Z,99818.41
2022-08-17T11:50:27.756Z,99827.84
2022-08-17T11:52:55.987Z,99817.25
2022-08-17T11:55:36.320Z,99816.78
2022-08-17T11:58:25.251Z,99820.03
2022-08-17T12:00:56.658Z,99815.88
2022-08-17T12:03:34.670Z,99810.78
2022-08-17T12:06:31.049Z,99805.69
2022-08-17T12:09:16.733Z,99812.94
2022-08-17T12:12:13.082Z,99820.91
2022-08-17T12:17:40.356Z,99830.34
2022-08-17T12:20:24.233Z,99839.75
2022-08-17T12:23:10.063Z,99826.25
2022-08-17T12:25:47.614Z,99837.22
2022-08-17T12:28:27.492Z,99829.34
2022-08-17T12:30:59.455Z,99846.22
2022-08-17T12:33:28.848Z,99813.09
2022-08-17T12:36:05.683Z,99836.16
2022-08-17T12:38:36.372Z,99826.88
2022-08-17T12:41:25.164Z,99825.88
2022-08-17T12:44:04.413Z,99829.41
2022-08-17T12:46:45.128Z,99820.47
2022-08-17T12:49:25.363Z,99824.72
2022-08-17T12:52:02.435Z,99823.59
2022-08-17T12:54:37.507Z,99816.66
2022-08-17T12:57:15.965Z,99826.69
2022-08-17T12:59:48.812Z,99820.81
2022-08-17T13:02:30.482Z,99823.31
2022-08-17T13:05:01.041Z,99819.31
2022-08-17T13:07:36.594Z,99829.59
2022-08-17T13:10:04.487Z,99817.44
2022-08-17T13:12:35.744Z,99817.56
2022-08-17T13:15:03.935Z,99805.56
2022-08-17T13:17:35.679Z,99822.53
2022-08-17T13:20:06.861Z,99816.88
2022-08-17T13:22:34.200Z,99802.25
2022-08-17T13:25:09.493Z,99807.69
2022-08-17T13:27:42.830Z,99798.22
2022-08-17T13:30:12.648Z,99788.50
2022-08-17T13:32:47.428Z,99800.72
2022-08-17T13:35:41.425Z,99807.38
2022-08-17T13:38:52.802Z,99800.38
2022-08-17T13:41:35.337Z,99790.75
2022-08-17T13:44:04.427Z,99797.84
2022-08-17T13:46:33.275Z,99789.41
2022-08-17T13:49:04.602Z,99792.22
2022-08-17T13:51:36.480Z,99802.47
2022-08-17T13:54:07.159Z,99809.69
2022-08-17T13:56:53.556Z,99797.19
2022-08-17T13:59:54.829Z,99811.31
2022-08-17T14:02:27.759Z,99794.66
2022-08-17T14:04:58.416Z,99807.16
2022-08-17T14:07:32.600Z,99800.44
2022-08-17T14:10:11.555Z,99800.03
2022-08-17T14:12:41.917Z,99797.47
2022-08-17T14:15:10.678Z,99786.44
2022-08-17T14:17:39.191Z,99782.66
2022-08-17T14:20:12.314Z,99791.81
2022-08-17T14:22:44.829Z,99791.03
2022-08-17T14:25:15.273Z,99801.31
2022-08-17T14:27:52.428Z,99792.47
2022-08-17T14:30:23.931Z,99813.31
2022-08-17T14:32:52.291Z,99808.41
2022-08-17T14:35:22.518Z,99802.63
2022-08-17T14:37:51.045Z,99804.47
2022-08-17T14:40:20.980Z,99795.66
2022-08-17T14:42:48.645Z,99802.31
2022-08-17T14:45:27.025Z,99794.59
2022-08-17T14:48:04.271Z,99796.97
2022-08-17T14:50:35.565Z,99796.34
2022-08-17T14:53:05.710Z,99800.78
2022-08-17T14:55:33.465Z,99795.94
2022-08-17T14:58:01.064Z,99787.63
2022-08-17T15:00:28.806Z,99792.25
2022-08-17T15:02:58.872Z,99794.72
2022-08-17T15:05:33.828Z,99795.16
2022-08-17T15:08:02.872Z,99788.44
2022-08-17T15:10:31.649Z,99801.69
2022-08-17T15:13:00.126Z,99792.41
2022-08-17T15:15:28.419Z,99801.84
2022-08-17T15:17:56.428Z,99796.06
2022-08-17T15:20:28.514Z,99800.09
2022-08-17T15:22:57.631Z,99806.16
2022-08-17T15:25:27.790Z,99805.72
2022-08-17T15:27:56.089Z,99804.78
2022-08-17T15:30:23.942Z,99808.34
2022-08-17T15:32:55.276Z,99809.66
2022-08-17T15:35:32.388Z,99820.31
2022-08-17T15:38:08.015Z,99811.09
2022-08-17T15:40:44.212Z,99814.69
2022-08-17T15:43:34.742Z,99817.03
2022-08-17T15:46:12.597Z,99823.16
2022-08-17T15:48:42.348Z,99826.16
2022-08-17T15:51:20.033Z,99826.75
2022-08-17T15:53:53.512Z,99824.06
2022-08-17T15:56:21.090Z,99826.94
2022-08-17T15:58:49.937Z,99803.75
2022-08-17T16:03:01.696Z,99828.34
2022-08-17T16:04:26.510Z,99831.44
2022-08-17T16:06:57.652Z,99827.50
2022-08-17T16:09:24.877Z,99827.25
2022-08-17T16:11:55.306Z,99815.47
2022-08-17T16:14:24.505Z,99823.06
2022-08-17T16:17:00.964Z,99815.16
2022-08-17T16:19:28.318Z,99814.91
2022-08-17T16:21:55.764Z,99814.69
2022-08-17T16:24:23.162Z,99830.38
2022-08-17T16:26:50.848Z,99813.94
2022-08-17T16:29:18.092Z,99819.13
2022-08-17T16:31:45.425Z,99828.69
2022-08-17T16:34:17.371Z,99813.59
2022-08-17T16:36:54.631Z,99833.66
2022-08-17T16:39:24.851Z,99834.56
2022-08-17T16:41:52.587Z,99832.94
2022-08-17T16:44:21.525Z,99828.56
2022-08-17T16:46:50.512Z,99834.25
2022-08-17T16:49:32.436Z,99832.84
2022-08-17T16:52:06.097Z,99838.84
2022-08-17T16:54:35.673Z,99845.50
2022-08-17T16:57:05.564Z,99833.41
2022-08-17T16:59:42.120Z,99832.97
2022-08-17T17:02:23.834Z,99842.25
2022-08-17T17:05:01.553Z,99829.56
2022-08-17T17:07:53.649Z,99847.09
2022-08-17T17:10:26.719Z,99844.94
2022-08-17T17:13:01.274Z,99845.44
2022-08-17T17:15:45.577Z,99852.75
2022-08-17T17:18:15.785Z,99863.94
2022-08-17T17:21:01.658Z,99867.13
2022-08-17T17:23:40.994Z,99864.44
2022-08-17T17:26:20.742Z,99858.13
2022-08-17T17:29:25.048Z,99872.63
2022-08-17T17:32:29.736Z,99867.63
2022-08-17T17:35:08.748Z,99866.22
2022-08-17T17:37:36.524Z,99865.13
2022-08-17T17:40:12.661Z,99856.63
2022-08-17T17:42:43.209Z,99850.53
2022-08-17T17:45:29.511Z,99844.06
2022-08-17T17:47:57.353Z,99842.22
2022-08-17T17:50:35.437Z,99836.09
2022-08-17T17:53:10.756Z,99835.97
2022-08-17T17:55:54.866Z,99840.28
2022-08-17T17:58:52.356Z,99826.97
2022-08-17T18:01:59.574Z,99850.00
2022-08-17T18:04:37.650Z,99843.34
2022-08-17T18:07:32.899Z,99843.09
2022-08-17T18:10:19.720Z,99844.78
2022-08-17T18:13:28.890Z,99840.22
2022-08-17T18:16:00.878Z,99829.44
2022-08-17T18:18:38.407Z,99833.69
2022-08-17T18:21:20.062Z,99832.06
2022-08-17T18:23:56.768Z,99821.06
2022-08-17T18:26:33.488Z,99839.38
2022-08-17T18:29:02.745Z,99841.53
2022-08-17T18:31:30.079Z,99839.53
2022-08-17T18:37:30.123Z,99830.09
2022-08-17T18:39:57.406Z,99838.44
2022-08-17T18:42:28.374Z,99836.94
2022-08-17T18:44:56.495Z,99850.84
2022-08-17T18:47:27.604Z,99842.38
2022-08-17T18:50:27.178Z,99854.56
2022-08-17T18:52:56.293Z,99841.56
2022-08-17T18:55:29.204Z,99851.09
2022-08-17T18:58:13.168Z,99854.94
2022-08-17T19:00:42.947Z,99823.28
2022-08-17T19:03:16.252Z,99850.13
2022-08-17T19:05:52.301Z,99859.91
2022-08-17T19:08:28.811Z,99848.53
2022-08-17T19:10:58.034Z,99838.75
2022-08-17T19:13:31.476Z,99813.56
2022-08-17T19:16:16.076Z,99843.38
2022-08-17T19:18:56.332Z,99843.38
2022-08-17T19:21:34.991Z,99847.81
2022-08-17T19:24:19.800Z,99839.13
2022-08-17T19:26:56.527Z,99840.72
2022-08-17T19:29:42.689Z,99842.88
2022-08-17T19:32:12.681Z,99841.75
2022-08-17T19:34:42.679Z,99836.44
2022-08-17T19:37:30.114Z,99827.03
2022-08-17T19:40:51.830Z,99834.16
2022-08-17T19:43:55.628Z,99834.06
2022-08-17T19:46:35.995Z,99828.69
2022-08-17T19:49:33.169Z,99819.69
2022-08-17T19:52:32.830Z,99823.81
2022-08-17T19:55:43.841Z,99825.81
2022-08-17T19:58:43.317Z,99821.97
2022-08-17T20:01:20.901Z,99822.91
2022-08-17T20:04:01.527Z,99819.91
2022-08-17T20:06:33.283Z,99824.13
2022-08-17T20:09:46.620Z,99812.34
2022-08-17T20:12:21.186Z,99820.28
2022-08-17T20:14:55.777Z,99829.03
2022-08-17T20:17:41.785Z,99833.09
2022-08-17T20:20:36.280Z,99838.88
2022-08-17T20:23:21.816Z,99825.84
2022-08-17T20:26:10.191Z,99843.69
2022-08-17T20:28:39.758Z,99841.69
2022-08-17T20:31:46.527Z,99841.81
2022-08-17T20:34:30.825Z,99846.91
2022-08-17T20:37:28.046Z,99840.84
2022-08-17T20:39:56.439Z,99842.63
2022-08-17T20:42:23.591Z,99847.72
2022-08-17T20:44:58.180Z,99844.53
2022-08-17T20:48:14.614Z,99846.00
2022-08-17T20:50:43.567Z,99845.72
2022-08-17T20:53:15.198Z,99842.53
2022-08-17T20:55:52.463Z,99840.91
2022-08-17T20:58:46.686Z,99838.75
2022-08-17T21:01:20.580Z,99847.28
2022-08-17T21:03:51.825Z,99846.59
2022-08-17T21:06:22.067Z,99842.53
2022-08-17T21:08:55.288Z,99846.59
2022-08-17T21:12:03.120Z,99840.91
2022-08-17T21:14:37.558Z,99845.53
2022-08-17T21:17:39.925Z,99840.78
2022-08-17T21:20:27.815Z,99835.44
2022-08-17T21:23:08.397Z,99839.06
2022-08-17T21:26:30.169Z,99839.06
2022-08-17T21:29:31.376Z,99829.41
2022-08-17T21:32:00.869Z,99839.66
2022-08-17T21:35:07.842Z,99828.34
2022-08-17T21:37:44.137Z,99822.84
2022-08-17T21:40:11.433Z,99821.97
2022-08-17T21:42:47.925Z,99830.63
2022-08-17T21:45:35.923Z,99829.75
2022-08-17T21:48:09.110Z,99825.47
2022-08-17T21:50:37.452Z,99813.13
2022-08-17T21:53:05.850Z,99812.75
2022-08-17T21:55:36.290Z,99801.13
2022-08-17T21:58:27.424Z,99806.31
2022-08-17T22:01:25.456Z,99816.25
2022-08-17T22:04:11.551Z,99816.53
2022-08-17T22:06:56.760Z,99824.16
2022-08-17T22:09:34.787Z,99812.75
2022-08-17T22:12:06.629Z,99818.53
2022-08-17T22:14:53.471Z,99820.94
2022-08-17T22:17:31.447Z,99808.53
2022-08-17T22:20:06.242Z,99818.31
2022-08-17T22:22:57.391Z,99806.53
2022-08-17T22:25:27.257Z,99815.94
2022-08-17T22:27:58.090Z,99814.63
2022-08-17T22:30:27.691Z,99804.97
2022-08-17T22:32:55.614Z,99796.88
2022-08-17T22:35:34.972Z,99807.09
2022-08-17T22:38:20.559Z,99818.16
2022-08-17T22:41:19.509Z,99818.06
2022-08-17T22:43:46.995Z,99812.91
2022-08-17T22:46:15.642Z,99799.63
2022-08-17T22:48:50.393Z,99804.25
2022-08-17T22:51:28.547Z,99810.59
2022-08-17T22:54:31.684Z,99823.19
2022-08-17T22:57:21.646Z,99809.41
2022-08-17T22:59:55.874Z,99826.16
2022-08-17T23:02:35.545Z,99825.56
2022-08-17T23:05:17.666Z,99812.81
2022-08-17T23:07:46.820Z,99811.56
2022-08-17T23:10:15.083Z,99815.25
2022-08-17T23:12:43.558Z,99801.84
2022-08-17T23:15:16.049Z,99811.72
2022-08-17T23:17:49.770Z,99809.78
2022-08-17T23:20:17.894Z,99789.50
2022-08-17T23:22:52.177Z,99797.97
2022-08-17T23:25:28.325Z,99802.63
2022-08-17T23:27:57.543Z,99810.94
2022-08-17T23:30:25.766Z,99811.13
2022-08-17T23:32:54.477Z,99788.44
2022-08-17T23:35:40.030Z,99793.56
2022-08-17T23:38:12.636Z,99789.88
2022-08-17T23:40:41.001Z,99793.66
2022-08-17T23:43:24.425Z,99799.44
2022-08-17T23:45:59.866Z,99784.31
2022-08-17T23:48:35.377Z,99798.88
2022-08-17T23:51:14.723Z,99796.13
2022-08-17T23:53:47.456Z,99794.03
2022-08-17T23:56:15.783Z,99782.69
2022-08-17T23:58:47.858Z,99776.19
